sensor_id;sensor_type;location;lat;lon;timestamp;P1;durP1;ratioP1;P2;durP2;ratioP2
35602;SDS011;21725;50.836;4.368;2023-04-24T07:37:26;21.80;;;10.75;;
35602;SDS011;21725;50.836;4.368;2023-04-24T07:40:28;15.68;;;9.02;;
35602;SDS011;21725;50.836;4.368;2023-04-24T07:43:28;27.20;;;10.18;;
35602;SDS011;21725;50.836;4.368;2023-04-24T07:46:29;19.27;;;10.68;;
35602;SDS011;21725;50.836;4.368;2023-04-24T07:49:33;22.95;;;11.27;;
35602;SDS011;21725;50.836;4.368;2023-04-24T07:52:36;18.75;;;12.02;;
35602;SDS011;21725;50.836;4.368;2023-04-24T07:55:37;20.15;;;11.05;;
35602;SDS011;21725;50.836;4.368;2023-04-24T07:58:38;18.67;;;10.45;;
35602;SDS011;21725;50.836;4.368;2023-04-24T08:01:38;16.65;;;10.23;;
35602;SDS011;21725;50.836;4.368;2023-04-24T08:04:39;19.73;;;11.40;;
35602;SDS011;21725;50.836;4.368;2023-04-24T08:07:40;21.73;;;12.52;;
35602;SDS011;21725;50.836;4.368;2023-04-24T08:10:42;18.35;;;9.50;;
35602;SDS011;21725;50.836;4.368;2023-04-24T08:13:43;20.80;;;10.85;;
35602;SDS011;21725;50.836;4.368;2023-04-24T08:16:44;18.67;;;9.02;;
35602;SDS011;21725;50.836;4.368;2023-04-24T08:19:45;18.55;;;7.93;;
35602;SDS011;21725;50.836;4.368;2023-04-24T08:22:48;21.70;;;8.32;;
35602;SDS011;21725;50.836;4.368;2023-04-24T08:25:49;15.98;;;8.18;;
35602;SDS011;21725;50.836;4.368;2023-04-24T08:28:52;18.15;;;7.75;;
35602;SDS011;21725;50.836;4.368;2023-04-24T08:31:53;21.90;;;10.35;;
35602;SDS011;21725;50.836;4.368;2023-04-24T08:34:55;20.48;;;7.93;;
35602;SDS011;21725;50.836;4.368;2023-04-24T08:38:01;18.40;;;8.05;;
35602;SDS011;21725;50.836;4.368;2023-04-24T08:41:02;16.42;;;6.28;;
35602;SDS011;21725;50.836;4.368;2023-04-24T08:44:07;17.88;;;7.55;;
35602;SDS011;21725;50.836;4.368;2023-04-24T08:47:08;17.30;;;7.03;;
35602;SDS011;21725;50.836;4.368;2023-04-24T08:50:10;13.23;;;7.75;;
35602;SDS011;21725;50.836;4.368;2023-04-24T08:53:12;13.90;;;6.68;;
35602;SDS011;21725;50.836;4.368;2023-04-24T08:56:14;17.50;;;7.25;;
35602;SDS011;21725;50.836;4.368;2023-04-24T09:02:26;11.50;;;5.78;;
35602;SDS011;21725;50.836;4.368;2023-04-24T09:05:34;12.93;;;6.75;;
35602;SDS011;21725;50.836;4.368;2023-04-24T09:08:48;15.27;;;6.50;;
35602;SDS011;21725;50.836;4.368;2023-04-24T09:12:04;13.60;;;5.55;;
35602;SDS011;21725;50.836;4.368;2023-04-24T09:15:31;12.20;;;5.45;;
35602;SDS011;21725;50.836;4.368;2023-04-24T09:18:38;12.00;;;5.03;;
35602;SDS011;21725;50.836;4.368;2023-04-24T09:21:52;23.58;;;6.35;;
35602;SDS011;21725;50.836;4.368;2023-04-24T09:25:09;11.85;;;5.43;;
35602;SDS011;21725;50.836;4.368;2023-04-24T09:28:12;11.77;;;5.55;;
35602;SDS011;21725;50.836;4.368;2023-04-24T09:31:17;13.85;;;5.65;;
35602;SDS011;21725;50.836;4.368;2023-04-24T09:34:26;16.08;;;5.88;;
35602;SDS011;21725;50.836;4.368;2023-04-24T09:37:43;10.50;;;4.88;;
35602;SDS011;21725;50.836;4.368;2023-04-24T09:40:45;11.55;;;5.85;;
35602;SDS011;21725;50.836;4.368;2023-04-24T09:43:57;12.80;;;6.07;;
35602;SDS011;21725;50.836;4.368;2023-04-24T09:47:28;14.55;;;5.13;;
35602;SDS011;21725;50.836;4.368;2023-04-24T09:50:43;13.70;;;5.53;;
35602;SDS011;21725;50.836;4.368;2023-04-24T09:53:48;7.57;;;4.80;;
35602;SDS011;21725;50.836;4.368;2023-04-24T09:57:03;15.00;;;5.30;;
35602;SDS011;21725;50.836;4.368;2023-04-24T10:00:07;13.98;;;5.35;;
35602;SDS011;21725;50.836;4.368;2023-04-24T10:03:32;11.90;;;4.63;;
35602;SDS011;21725;50.836;4.368;2023-04-24T10:06:56;12.30;;;4.53;;
35602;SDS011;21725;50.836;4.368;2023-04-24T10:10:13;7.35;;;4.18;;
35602;SDS011;21725;50.836;4.368;2023-04-24T10:13:16;12.02;;;4.82;;
35602;SDS011;21725;50.836;4.368;2023-04-24T10:16:25;7.72;;;4.85;;
35602;SDS011;21725;50.836;4.368;2023-04-24T10:19:44;8.57;;;4.38;;
35602;SDS011;21725;50.836;4.368;2023-04-24T10:22:52;15.52;;;5.50;;
35602;SDS011;21725;50.836;4.368;2023-04-24T10:25:53;10.13;;;4.70;;
35602;SDS011;21725;50.836;4.368;2023-04-24T10:29:06;13.57;;;6.82;;
35602;SDS011;21725;50.836;4.368;2023-04-24T10:32:11;8.30;;;4.93;;
35602;SDS011;21725;50.836;4.368;2023-04-24T10:35:17;17.00;;;6.57;;
35602;SDS011;21725;50.836;4.368;2023-04-24T10:38:25;14.35;;;6.32;;
35602;SDS011;21725;50.836;4.368;2023-04-24T10:41:31;11.98;;;6.10;;
35602;SDS011;21725;50.836;4.368;2023-04-24T10:44:49;23.08;;;7.63;;
35602;SDS011;21725;50.836;4.368;2023-04-24T10:51:01;13.20;;;6.10;;
35602;SDS011;21725;50.836;4.368;2023-04-24T10:54:36;14.27;;;5.55;;
35602;SDS011;21725;50.836;4.368;2023-04-24T10:58:01;17.48;;;5.88;;
35602;SDS011;21725;50.836;4.368;2023-04-24T11:01:07;13.35;;;6.40;;
35602;SDS011;21725;50.836;4.368;2023-04-24T11:04:13;12.85;;;5.60;;
35602;SDS011;21725;50.836;4.368;2023-04-24T11:11:21;13.93;;;6.18;;
35602;SDS011;21725;50.836;4.368;2023-04-24T11:18:01;12.48;;;6.97;;
35602;SDS011;21725;50.836;4.368;2023-04-24T11:21:12;17.58;;;7.80;;
35602;SDS011;21725;50.836;4.368;2023-04-24T11:27:50;10.50;;;6.30;;
35602;SDS011;21725;50.836;4.368;2023-04-24T11:35:06;15.25;;;6.53;;
35602;SDS011;21725;50.836;4.368;2023-04-24T11:38:21;13.57;;;5.10;;
35602;SDS011;21725;50.836;4.368;2023-04-24T11:41:22;14.23;;;6.70;;
35602;SDS011;21725;50.836;4.368;2023-04-24T11:44:41;13.50;;;6.53;;
35602;SDS011;21725;50.836;4.368;2023-04-24T11:47:53;9.13;;;5.03;;
35602;SDS011;21725;50.836;4.368;2023-04-24T11:51:13;14.25;;;7.28;;
35602;SDS011;21725;50.836;4.368;2023-04-24T11:54:17;14.00;;;6.13;;
35602;SDS011;21725;50.836;4.368;2023-04-24T11:57:21;12.85;;;6.22;;
35602;SDS011;21725;50.836;4.368;2023-04-24T12:00:27;9.30;;;6.40;;
35602;SDS011;21725;50.836;4.368;2023-04-24T12:03:47;10.55;;;6.65;;
35602;SDS011;21725;50.836;4.368;2023-04-24T12:07:02;11.82;;;6.20;;
35602;SDS011;21725;50.836;4.368;2023-04-24T12:10:12;10.18;;;6.00;;
35602;SDS011;21725;50.836;4.368;2023-04-24T12:13:26;11.93;;;5.30;;
35602;SDS011;21725;50.836;4.368;2023-04-24T12:16:27;11.57;;;6.15;;
35602;SDS011;21725;50.836;4.368;2023-04-24T12:19:30;10.05;;;7.35;;
35602;SDS011;21725;50.836;4.368;2023-04-24T12:22:47;9.27;;;5.53;;
35602;SDS011;21725;50.836;4.368;2023-04-24T12:25:53;14.48;;;6.30;;
35602;SDS011;21725;50.836;4.368;2023-04-24T12:29:01;9.32;;;5.93;;
35602;SDS011;21725;50.836;4.368;2023-04-24T12:32:03;14.27;;;6.10;;
35602;SDS011;21725;50.836;4.368;2023-04-24T12:38:33;13.27;;;5.55;;
35602;SDS011;21725;50.836;4.368;2023-04-24T12:41:49;10.85;;;5.97;;
35602;SDS011;21725;50.836;4.368;2023-04-24T12:45:15;11.23;;;6.32;;
35602;SDS011;21725;50.836;4.368;2023-04-24T12:48:29;8.63;;;4.82;;
35602;SDS011;21725;50.836;4.368;2023-04-24T12:51:33;12.75;;;5.20;;
35602;SDS011;21725;50.836;4.368;2023-04-24T12:54:44;9.05;;;5.72;;
35602;SDS011;21725;50.836;4.368;2023-04-24T12:57:45;8.90;;;4.30;;
35602;SDS011;21725;50.836;4.368;2023-04-24T13:00:49;9.73;;;4.35;;
35602;SDS011;21725;50.836;4.368;2023-04-24T13:04:27;8.80;;;4.68;;
35602;SDS011;21725;50.836;4.368;2023-04-24T13:07:34;7.72;;;4.30;;
35602;SDS011;21725;50.836;4.368;2023-04-24T13:10:50;8.95;;;5.32;;
35602;SDS011;21725;50.836;4.368;2023-04-24T13:13:54;8.88;;;4.40;;
35602;SDS011;21725;50.836;4.368;2023-04-24T13:16:57;9.85;;;4.72;;
35602;SDS011;21725;50.836;4.368;2023-04-24T13:20:09;12.57;;;5.90;;
35602;SDS011;21725;50.836;4.368;2023-04-24T13:23:13;9.98;;;4.88;;
35602;SDS011;21725;50.836;4.368;2023-04-24T13:26:21;9.90;;;5.25;;
35602;SDS011;21725;50.836;4.368;2023-04-24T13:29:31;8.23;;;5.32;;
35602;SDS011;21725;50.836;4.368;2023-04-24T13:32:43;11.05;;;5.18;;
35602;SDS011;21725;50.836;4.368;2023-04-24T13:35:47;9.43;;;4.13;;
35602;SDS011;21725;50.836;4.368;2023-04-24T13:38:55;9.68;;;4.72;;
35602;SDS011;21725;50.836;4.368;2023-04-24T13:42:05;13.48;;;5.10;;
35602;SDS011;21725;50.836;4.368;2023-04-24T13:45:26;6.43;;;3.55;;
35602;SDS011;21725;50.836;4.368;2023-04-24T13:48:29;9.32;;;4.15;;
35602;SDS011;21725;50.836;4.368;2023-04-24T13:51:35;6.13;;;3.72;;
35602;SDS011;21725;50.836;4.368;2023-04-24T13:54:41;7.70;;;4.18;;
35602;SDS011;21725;50.836;4.368;2023-04-24T13:57:44;5.55;;;3.28;;
35602;SDS011;21725;50.836;4.368;2023-04-24T14:00:52;7.63;;;3.97;;
35602;SDS011;21725;50.836;4.368;2023-04-24T14:04:03;5.90;;;3.05;;
35602;SDS011;21725;50.836;4.368;2023-04-24T14:07:17;8.90;;;3.65;;
35602;SDS011;21725;50.836;4.368;2023-04-24T14:10:20;7.70;;;3.88;;
35602;SDS011;21725;50.836;4.368;2023-04-24T14:13:23;5.55;;;2.83;;
35602;SDS011;21725;50.836;4.368;2023-04-24T14:16:28;6.82;;;3.28;;
35602;SDS011;21725;50.836;4.368;2023-04-24T14:19:39;4.40;;;3.00;;
35602;SDS011;21725;50.836;4.368;2023-04-24T14:23:00;7.90;;;3.00;;
35602;SDS011;21725;50.836;4.368;2023-04-24T14:26:01;6.93;;;3.65;;
35602;SDS011;21725;50.836;4.368;2023-04-24T14:29:02;7.57;;;3.10;;
35602;SDS011;21725;50.836;4.368;2023-04-24T14:32:03;4.82;;;3.00;;
35602;SDS011;21725;50.836;4.368;2023-04-24T14:35:09;4.82;;;2.72;;
35602;SDS011;21725;50.836;4.368;2023-04-24T14:38:14;5.63;;;3.70;;
35602;SDS011;21725;50.836;4.368;2023-04-24T14:41:33;8.73;;;3.10;;
35602;SDS011;21725;50.836;4.368;2023-04-24T14:55:18;6.30;;;3.20;;
35602;SDS011;21725;50.836;4.368;2023-04-24T14:58:36;6.28;;;2.72;;
35602;SDS011;21725;50.836;4.368;2023-04-24T15:01:43;8.85;;;3.33;;
35602;SDS011;21725;50.836;4.368;2023-04-24T15:04:49;7.70;;;4.15;;
35602;SDS011;21725;50.836;4.368;2023-04-24T15:07:52;9.18;;;4.53;;
35602;SDS011;21725;50.836;4.368;2023-04-24T15:11:03;14.70;;;3.40;;
35602;SDS011;21725;50.836;4.368;2023-04-24T15:14:08;5.53;;;2.90;;
35602;SDS011;21725;50.836;4.368;2023-04-24T15:17:11;7.30;;;3.33;;
35602;SDS011;21725;50.836;4.368;2023-04-24T15:20:12;11.65;;;6.00;;
35602;SDS011;21725;50.836;4.368;2023-04-24T15:23:15;7.18;;;3.50;;
35602;SDS011;21725;50.836;4.368;2023-04-24T15:26:18;8.75;;;4.32;;
35602;SDS011;21725;50.836;4.368;2023-04-24T15:29:46;9.85;;;2.90;;
35602;SDS011;21725;50.836;4.368;2023-04-24T15:32:57;8.02;;;3.00;;
35602;SDS011;21725;50.836;4.368;2023-04-24T15:36:20;8.90;;;3.25;;
35602;SDS011;21725;50.836;4.368;2023-04-24T15:39:22;7.80;;;3.08;;
35602;SDS011;21725;50.836;4.368;2023-04-24T15:42:34;6.22;;;3.30;;
35602;SDS011;21725;50.836;4.368;2023-04-24T15:45:48;25.52;;;4.35;;
35602;SDS011;21725;50.836;4.368;2023-04-24T15:48:59;8.40;;;2.90;;
35602;SDS011;21725;50.836;4.368;2023-04-24T15:52:09;5.07;;;2.90;;
35602;SDS011;21725;50.836;4.368;2023-04-24T15:55:30;5.00;;;2.50;;
35602;SDS011;21725;50.836;4.368;2023-04-24T15:58:36;5.22;;;3.10;;
35602;SDS011;21725;50.836;4.368;2023-04-24T16:01:47;6.57;;;2.92;;
35602;SDS011;21725;50.836;4.368;2023-04-24T16:04:53;6.00;;;2.50;;
35602;SDS011;21725;50.836;4.368;2023-04-24T16:08:01;6.88;;;2.67;;
35602;SDS011;21725;50.836;4.368;2023-04-24T16:14:28;7.97;;;3.35;;
35602;SDS011;21725;50.836;4.368;2023-04-24T16:17:43;5.95;;;2.40;;
35602;SDS011;21725;50.836;4.368;2023-04-24T16:20:46;8.38;;;3.53;;
35602;SDS011;21725;50.836;4.368;2023-04-24T16:27:35;6.88;;;3.10;;
35602;SDS011;21725;50.836;4.368;2023-04-24T16:30:50;6.38;;;3.42;;
35602;SDS011;21725;50.836;4.368;2023-04-24T16:34:11;6.60;;;3.38;;
35602;SDS011;21725;50.836;4.368;2023-04-24T16:37:29;8.50;;;3.75;;
35602;SDS011;21725;50.836;4.368;2023-04-24T16:40:33;5.85;;;2.67;;
35602;SDS011;21725;50.836;4.368;2023-04-24T16:43:41;5.93;;;2.55;;
35602;SDS011;21725;50.836;4.368;2023-04-24T16:46:47;5.25;;;3.25;;
35602;SDS011;21725;50.836;4.368;2023-04-24T16:49:58;6.18;;;2.85;;
35602;SDS011;21725;50.836;4.368;2023-04-24T16:53:14;6.25;;;3.00;;
35602;SDS011;21725;50.836;4.368;2023-04-24T16:59:41;3.97;;;2.17;;
35602;SDS011;21725;50.836;4.368;2023-04-24T17:02:51;5.35;;;2.90;;
35602;SDS011;21725;50.836;4.368;2023-04-24T17:05:57;6.13;;;3.25;;
35602;SDS011;21725;50.836;4.368;2023-04-24T17:08:57;7.75;;;4.38;;
35602;SDS011;21725;50.836;4.368;2023-04-24T17:12:02;7.97;;;3.30;;
35602;SDS011;21725;50.836;4.368;2023-04-24T17:15:28;5.47;;;3.28;;
35602;SDS011;21725;50.836;4.368;2023-04-24T17:18:32;8.45;;;5.13;;
35602;SDS011;21725;50.836;4.368;2023-04-24T17:21:36;7.80;;;4.03;;
35602;SDS011;21725;50.836;4.368;2023-04-24T17:24:44;5.70;;;3.00;;
35602;SDS011;21725;50.836;4.368;2023-04-24T17:27:48;12.65;;;3.72;;
35602;SDS011;21725;50.836;4.368;2023-04-24T17:31:00;6.88;;;3.72;;
35602;SDS011;21725;50.836;4.368;2023-04-24T17:34:06;8.68;;;4.18;;
35602;SDS011;21725;50.836;4.368;2023-04-24T17:37:29;5.45;;;3.50;;
35602;SDS011;21725;50.836;4.368;2023-04-24T17:40:43;9.07;;;3.90;;
35602;SDS011;21725;50.836;4.368;2023-04-24T17:44:00;7.55;;;3.90;;
35602;SDS011;21725;50.836;4.368;2023-04-24T17:47:10;11.05;;;4.75;;
35602;SDS011;21725;50.836;4.368;2023-04-24T17:50:23;8.82;;;5.10;;
35602;SDS011;21725;50.836;4.368;2023-04-24T17:53:32;10.43;;;6.50;;
35602;SDS011;21725;50.836;4.368;2023-04-24T17:56:43;7.38;;;4.88;;
35602;SDS011;21725;50.836;4.368;2023-04-24T17:59:44;9.73;;;5.22;;
35602;SDS011;21725;50.836;4.368;2023-04-24T18:02:52;8.52;;;4.78;;
35602;SDS011;21725;50.836;4.368;2023-04-24T18:06:04;7.95;;;4.40;;
35602;SDS011;21725;50.836;4.368;2023-04-24T18:12:45;11.07;;;7.13;;
35602;SDS011;21725;50.836;4.368;2023-04-24T18:15:56;13.77;;;6.97;;
35602;SDS011;21725;50.836;4.368;2023-04-24T18:18:56;14.00;;;5.95;;
35602;SDS011;21725;50.836;4.368;2023-04-24T18:21:57;7.63;;;3.83;;
35602;SDS011;21725;50.836;4.368;2023-04-24T18:24:58;9.05;;;3.97;;
35602;SDS011;21725;50.836;4.368;2023-04-24T18:27:59;7.32;;;3.00;;
35602;SDS011;21725;50.836;4.368;2023-04-24T18:31:00;6.47;;;2.65;;
35602;SDS011;21725;50.836;4.368;2023-04-24T18:34:01;8.98;;;4.32;;
35602;SDS011;21725;50.836;4.368;2023-04-24T18:37:02;8.82;;;3.78;;
35602;SDS011;21725;50.836;4.368;2023-04-24T18:40:03;16.70;;;4.00;;
35602;SDS011;21725;50.836;4.368;2023-04-24T18:43:04;8.88;;;3.78;;
35602;SDS011;21725;50.836;4.368;2023-04-24T18:46:05;6.75;;;3.28;;
35602;SDS011;21725;50.836;4.368;2023-04-24T18:49:06;11.52;;;5.03;;
35602;SDS011;21725;50.836;4.368;2023-04-24T18:52:07;7.35;;;3.53;;
35602;SDS011;21725;50.836;4.368;2023-04-24T18:55:11;10.10;;;3.95;;
35602;SDS011;21725;50.836;4.368;2023-04-24T18:58:21;20.17;;;5.00;;
35602;SDS011;21725;50.836;4.368;2023-04-24T19:01:25;8.10;;;3.50;;
35602;SDS011;21725;50.836;4.368;2023-04-24T19:04:35;5.28;;;3.58;;
35602;SDS011;21725;50.836;4.368;2023-04-24T19:07:48;11.27;;;6.18;;
35602;SDS011;21725;50.836;4.368;2023-04-24T19:11:10;7.30;;;3.25;;
35602;SDS011;21725;50.836;4.368;2023-04-24T19:14:13;10.90;;;4.88;;
35602;SDS011;21725;50.836;4.368;2023-04-24T19:17:29;9.15;;;5.15;;
35602;SDS011;21725;50.836;4.368;2023-04-24T19:20:47;9.43;;;4.65;;
35602;SDS011;21725;50.836;4.368;2023-04-24T19:23:50;8.15;;;4.90;;
35602;SDS011;21725;50.836;4.368;2023-04-24T19:26:55;12.02;;;5.18;;
35602;SDS011;21725;50.836;4.368;2023-04-24T19:30:07;19.10;;;5.93;;
35602;SDS011;21725;50.836;4.368;2023-04-24T19:33:21;10.20;;;4.57;;
35602;SDS011;21725;50.836;4.368;2023-04-24T19:36:21;11.77;;;5.32;;
35602;SDS011;21725;50.836;4.368;2023-04-24T19:39:44;15.82;;;5.95;;
35602;SDS011;21725;50.836;4.368;2023-04-24T19:42:47;8.07;;;4.05;;
35602;SDS011;21725;50.836;4.368;2023-04-24T19:45:51;10.02;;;4.60;;
35602;SDS011;21725;50.836;4.368;2023-04-24T19:48:54;12.60;;;4.65;;
35602;SDS011;21725;50.836;4.368;2023-04-24T19:52:04;14.65;;;5.53;;
35602;SDS011;21725;50.836;4.368;2023-04-24T19:55:05;8.52;;;4.03;;
35602;SDS011;21725;50.836;4.368;2023-04-24T19:58:09;12.25;;;4.90;;
35602;SDS011;21725;50.836;4.368;2023-04-24T20:01:09;13.25;;;5.30;;
35602;SDS011;21725;50.836;4.368;2023-04-24T20:04:10;16.60;;;4.30;;
35602;SDS011;21725;50.836;4.368;2023-04-24T20:07:11;9.30;;;4.60;;
35602;SDS011;21725;50.836;4.368;2023-04-24T20:10:14;9.40;;;4.00;;
35602;SDS011;21725;50.836;4.368;2023-04-24T20:13:15;10.95;;;5.20;;
35602;SDS011;21725;50.836;4.368;2023-04-24T20:16:39;7.95;;;5.28;;
35602;SDS011;21725;50.836;4.368;2023-04-24T20:19:42;12.35;;;6.30;;
35602;SDS011;21725;50.836;4.368;2023-04-24T20:22:43;13.15;;;4.65;;
35602;SDS011;21725;50.836;4.368;2023-04-24T20:25:51;10.45;;;4.57;;
35602;SDS011;21725;50.836;4.368;2023-04-24T20:29:06;12.07;;;4.88;;
35602;SDS011;21725;50.836;4.368;2023-04-24T20:35:55;8.15;;;4.00;;
35602;SDS011;21725;50.836;4.368;2023-04-24T20:39:09;11.83;;;4.97;;
35602;SDS011;21725;50.836;4.368;2023-04-24T20:42:17;13.48;;;7.40;;
35602;SDS011;21725;50.836;4.368;2023-04-24T20:45:20;17.48;;;5.35;;
35602;SDS011;21725;50.836;4.368;2023-04-24T20:48:44;10.82;;;4.88;;
35602;SDS011;21725;50.836;4.368;2023-04-24T20:52:00;12.23;;;5.53;;
35602;SDS011;21725;50.836;4.368;2023-04-24T20:55:06;10.90;;;5.15;;
35602;SDS011;21725;50.836;4.368;2023-04-24T20:58:26;13.25;;;5.38;;
35602;SDS011;21725;50.836;4.368;2023-04-24T21:01:44;15.93;;;7.00;;
35602;SDS011;21725;50.836;4.368;2023-04-24T21:04:47;18.45;;;6.10;;
35602;SDS011;21725;50.836;4.368;2023-04-24T21:08:00;10.68;;;5.22;;
35602;SDS011;21725;50.836;4.368;2023-04-24T21:11:02;7.82;;;3.47;;
35602;SDS011;21725;50.836;4.368;2023-04-24T21:14:10;10.40;;;5.53;;
35602;SDS011;21725;50.836;4.368;2023-04-24T21:17:41;11.88;;;4.60;;
35602;SDS011;21725;50.836;4.368;2023-04-24T21:20:47;14.57;;;4.93;;
35602;SDS011;21725;50.836;4.368;2023-04-24T21:23:56;19.42;;;5.45;;
35602;SDS011;21725;50.836;4.368;2023-04-24T21:27:04;13.30;;;5.72;;
35602;SDS011;21725;50.836;4.368;2023-04-24T21:33:31;19.67;;;7.03;;
35602;SDS011;21725;50.836;4.368;2023-04-24T21:36:42;10.25;;;3.80;;
35602;SDS011;21725;50.836;4.368;2023-04-24T21:39:48;16.13;;;5.38;;
35602;SDS011;21725;50.836;4.368;2023-04-24T21:43:06;16.50;;;6.57;;
35602;SDS011;21725;50.836;4.368;2023-04-24T21:46:23;18.15;;;5.55;;
35602;SDS011;21725;50.836;4.368;2023-04-24T21:49:35;14.75;;;6.32;;
35602;SDS011;21725;50.836;4.368;2023-04-24T21:52:39;9.63;;;5.22;;
35602;SDS011;21725;50.836;4.368;2023-04-24T21:55:43;12.18;;;5.20;;
35602;SDS011;21725;50.836;4.368;2023-04-24T21:58:46;14.13;;;6.13;;
35602;SDS011;21725;50.836;4.368;2023-04-24T22:01:57;14.57;;;6.65;;
35602;SDS011;21725;50.836;4.368;2023-04-24T22:05:05;20.83;;;6.03;;
35602;SDS011;21725;50.836;4.368;2023-04-24T22:08:17;11.02;;;4.68;;
35602;SDS011;21725;50.836;4.368;2023-04-24T22:11:20;16.25;;;6.43;;
35602;SDS011;21725;50.836;4.368;2023-04-24T22:14:41;18.40;;;5.53;;
35602;SDS011;21725;50.836;4.368;2023-04-24T22:17:42;11.63;;;6.30;;
35602;SDS011;21725;50.836;4.368;2023-04-24T22:20:53;14.05;;;6.20;;
35602;SDS011;21725;50.836;4.368;2023-04-24T22:23:56;16.38;;;6.10;;
35602;SDS011;21725;50.836;4.368;2023-04-24T22:27:09;13.82;;;5.47;;
35602;SDS011;21725;50.836;4.368;2023-04-24T22:33:30;11.82;;;5.22;;
35602;SDS011;21725;50.836;4.368;2023-04-24T22:36:31;10.80;;;5.60;;
35602;SDS011;21725;50.836;4.368;2023-04-24T22:39:46;19.50;;;5.90;;
35602;SDS011;21725;50.836;4.368;2023-04-24T22:42:49;15.75;;;5.50;;
35602;SDS011;21725;50.836;4.368;2023-04-24T22:45:53;22.48;;;5.57;;
35602;SDS011;21725;50.836;4.368;2023-04-24T22:49:03;14.52;;;4.40;;
35602;SDS011;21725;50.836;4.368;2023-04-24T22:52:26;10.32;;;4.05;;
35602;SDS011;21725;50.836;4.368;2023-04-24T22:55:50;19.30;;;5.90;;
35602;SDS011;21725;50.836;4.368;2023-04-24T22:58:50;14.95;;;5.00;;
35602;SDS011;21725;50.836;4.368;2023-04-24T23:02:02;14.68;;;5.15;;
35602;SDS011;21725;50.836;4.368;2023-04-24T23:05:12;18.88;;;5.55;;
35602;SDS011;21725;50.836;4.368;2023-04-24T23:12:17;11.45;;;3.58;;
35602;SDS011;21725;50.836;4.368;2023-04-24T23:15:27;16.92;;;4.90;;
35602;SDS011;21725;50.836;4.368;2023-04-24T23:18:33;17.25;;;5.43;;
35602;SDS011;21725;50.836;4.368;2023-04-24T23:21:36;21.77;;;5.38;;
35602;SDS011;21725;50.836;4.368;2023-04-24T23:24:48;14.50;;;4.90;;
35602;SDS011;21725;50.836;4.368;2023-04-24T23:28:02;16.35;;;4.47;;
35602;SDS011;21725;50.836;4.368;2023-04-24T23:31:10;17.77;;;4.90;;
35602;SDS011;21725;50.836;4.368;2023-04-24T23:34:17;16.10;;;4.72;;
35602;SDS011;21725;50.836;4.368;2023-04-24T23:37:29;14.38;;;5.43;;
35602;SDS011;21725;50.836;4.368;2023-04-24T23:40:40;16.60;;;4.68;;
35602;SDS011;21725;50.836;4.368;2023-04-24T23:43:51;17.50;;;4.90;;
35602;SDS011;21725;50.836;4.368;2023-04-24T23:46:56;15.88;;;4.32;;
35602;SDS011;21725;50.836;4.368;2023-04-24T23:50:13;14.38;;;4.97;;
35602;SDS011;21725;50.836;4.368;2023-04-24T23:53:23;11.57;;;4.00;;
35602;SDS011;21725;50.836;4.368;2023-04-24T23:56:54;19.85;;;5.90;;
